Time;durP1;ratioP1;P1;durP2;ratioP2;P2;SDS_P1;SDS_P2;PMS_P1;PMS_P2;Temp;Humidity;BMP_temperature;BMP_pressure;BME280_temperature;BME280_humidity;BME280_pressure;Samples;Min_cycle;Max_cycle;Signal;HPM_P1;HPM_P2
2022/10/08 00:00:51;;;;;;;;;9.33;8.33;;;;;;;;5082593;27;45854;-77
2022/10/08 00:03:17;;;;;;;;;7.00;6.67;;;;;;;;5075197;27;45965;-79
2022/10/08 00:05:43;;;;;;;;;9.33;7.00;;;;;;;;5093356;27;45387;-76
2022/10/08 00:08:09;;;;;;;;;10.33;7.67;;;;;;;;5073316;27;46743;-79
2022/10/08 00:10:34;;;;;;;;;9.00;9.00;;;;;;;;5091646;27;45713;-77
2022/10/08 00:13:00;;;;;;;;;8.33;8.33;;;;;;;;5084831;27;45650;-76
2022/10/08 00:15:29;;;;;;;;;6.00;6.00;;;;;;;;5092242;27;45597;-77
2022/10/08 00:17:54;;;;;;;;;8.00;7.00;;;;;;;;5085645;27;45413;-77
2022/10/08 00:20:20;;;;;;;;;8.00;8.00;;;;;;;;5084689;27;45431;-78
2022/10/08 00:22:46;;;;;;;;;2.00;1.67;;;;;;;;5084583;27;45456;-77
2022/10/08 00:25:11;;;;;;;;;9.67;7.00;;;;;;;;5091907;27;45631;-75
2022/10/08 00:27:36;;;;;;;;;7.67;6.00;;;;;;;;5073609;27;47314;-77
2022/10/08 00:30:04;;;;;;;;;7.67;7.00;;;;;;;;5092412;27;45717;-76
2022/10/08 00:32:31;;;;;;;;;8.00;5.00;;;;;;;;5098429;27;45787;-77
2022/10/08 00:34:57;;;;;;;;;7.33;5.67;;;;;;;;5082072;27;46160;-75
2022/10/08 00:37:24;;;;;;;;;8.00;8.00;;;;;;;;5099215;27;46121;-76
2022/10/08 00:39:49;;;;;;;;;8.33;7.00;;;;;;;;5086961;27;45922;-79
2022/10/08 00:42:15;;;;;;;;;12.00;9.33;;;;;;;;5101568;27;45365;-74
2022/10/08 00:44:53;;;;;;;;;5.67;5.67;;;;;;;;5101589;27;45434;-78
2022/10/08 00:47:24;;;;;;;;;13.00;6.33;;;;;;;;5107553;27;45063;-79
2022/10/08 00:49:52;;;;;;;;;7.33;7.33;;;;;;;;5099730;27;45286;-77
2022/10/08 00:52:18;;;;;;;;;10.67;8.67;;;;;;;;5122162;27;45234;-77
2022/10/08 00:54:44;;;;;;;;;7.00;5.67;;;;;;;;5087980;27;46276;-78
2022/10/08 00:57:09;;;;;;;;;8.00;6.00;;;;;;;;5114903;27;45437;-76
2022/10/08 00:59:36;;;;;;;;;6.00;4.67;;;;;;;;5108431;27;45535;-78
2022/10/08 01:02:01;;;;;;;;;11.33;6.00;;;;;;;;5109832;27;45369;-77
2022/10/08 01:04:27;;;;;;;;;11.33;7.67;;;;;;;;5105813;27;45378;-77
2022/10/08 01:07:09;;;;;;;;;8.33;6.00;;;;;;;;5091984;27;45902;-77
2022/10/08 01:09:40;;;;;;;;;9.67;6.00;;;;;;;;5091304;27;44802;-78
2022/10/08 01:12:06;;;;;;;;;10.00;6.00;;;;;;;;5115675;27;45537;-75
2022/10/08 01:14:38;;;;;;;;;7.33;4.00;;;;;;;;5108525;27;45606;-77
2022/10/08 01:17:11;;;;;;;;;7.33;7.33;;;;;;;;5110900;27;45416;-76
2022/10/08 01:19:55;;;;;;;;;9.33;5.00;;;;;;;;5104255;27;45680;-74
2022/10/08 01:22:39;;;;;;;;;5.67;5.67;;;;;;;;5103391;27;45685;-75
2022/10/08 01:27:59;;;;;;;;;7.00;6.33;;;;;;;;5095447;27;45452;-76
2022/10/08 01:30:25;;;;;;;;;8.67;7.33;;;;;;;;5105273;27;45536;-77
2022/10/08 01:33:01;;;;;;;;;9.67;6.67;;;;;;;;5086719;27;45332;-75
2022/10/08 01:35:28;;;;;;;;;5.33;4.67;;;;;;;;5108278;27;45369;-78
2022/10/08 01:37:57;;;;;;;;;7.33;6.00;;;;;;;;5111744;27;45109;-78
2022/10/08 01:40:28;;;;;;;;;6.00;3.00;;;;;;;;5123848;27;45355;-78
2022/10/08 01:42:55;;;;;;;;;5.00;5.00;;;;;;;;5101846;27;45348;-78
2022/10/08 01:45:27;;;;;;;;;6.33;4.00;;;;;;;;5113328;27;45447;-77
2022/10/08 01:47:53;;;;;;;;;5.00;4.00;;;;;;;;5108142;27;45763;-78
2022/10/08 01:50:22;;;;;;;;;7.67;4.00;;;;;;;;5111765;27;45142;-75
2022/10/08 01:52:57;;;;;;;;;6.67;5.67;;;;;;;;5102046;27;45775;-76
2022/10/08 01:55:27;;;;;;;;;4.67;3.33;;;;;;;;5114328;27;45630;-74
2022/10/08 01:57:56;;;;;;;;;5.00;4.00;;;;;;;;5109404;27;45420;-73
2022/10/08 02:00:21;;;;;;;;;9.00;5.00;;;;;;;;5102332;27;45395;-74
2022/10/08 02:02:46;;;;;;;;;7.00;5.33;;;;;;;;5100230;27;44798;-75
2022/10/08 02:05:12;;;;;;;;;3.00;3.00;;;;;;;;5101301;27;45429;-74
2022/10/08 02:07:41;;;;;;;;;3.00;3.00;;;;;;;;5102645;27;45443;-75
2022/10/08 02:10:14;;;;;;;;;4.00;4.00;;;;;;;;5105284;27;45798;-73
2022/10/08 02:12:40;;;;;;;;;5.00;3.00;;;;;;;;5089395;27;45449;-78
2022/10/08 02:15:10;;;;;;;;;4.67;4.00;;;;;;;;5098148;27;45265;-77
2022/10/08 02:17:51;;;;;;;;;4.33;4.00;;;;;;;;5124313;27;45340;-78
2022/10/08 02:20:20;;;;;;;;;5.00;4.33;;;;;;;;5122801;27;45358;-78
2022/10/08 02:22:46;;;;;;;;;4.67;4.33;;;;;;;;5114832;27;45322;-78
2022/10/08 02:25:20;;;;;;;;;3.33;3.33;;;;;;;;5121629;27;45400;-76
2022/10/08 02:27:53;;;;;;;;;5.67;4.33;;;;;;;;5112851;27;45439;-80
2022/10/08 02:30:19;;;;;;;;;5.00;4.00;;;;;;;;5113128;27;45506;-77
2022/10/08 02:32:54;;;;;;;;;5.00;2.67;;;;;;;;5111423;27;44747;-77
2022/10/08 02:35:24;;;;;;;;;3.00;3.00;;;;;;;;5099068;27;45347;-73
2022/10/08 02:37:56;;;;;;;;;4.00;4.00;;;;;;;;5105070;27;45351;-77
2022/10/08 02:40:23;;;;;;;;;3.67;2.33;;;;;;;;5105302;27;45405;-78
2022/10/08 02:42:51;;;;;;;;;5.00;3.67;;;;;;;;5093206;27;45733;-73
2022/10/08 02:45:29;;;;;;;;;3.00;2.00;;;;;;;;5103819;27;45523;-76
2022/10/08 02:47:58;;;;;;;;;3.00;3.00;;;;;;;;5085453;28;45769;-76
2022/10/08 02:50:25;;;;;;;;;2.67;2.67;;;;;;;;5083647;27;45385;-75
2022/10/08 02:52:51;;;;;;;;;5.00;4.67;;;;;;;;5107738;27;45454;-77
2022/10/08 02:55:21;;;;;;;;;6.00;4.00;;;;;;;;5111028;27;45679;-77
2022/10/08 02:57:50;;;;;;;;;8.00;3.33;;;;;;;;5114064;27;46352;-77
2022/10/08 03:00:16;;;;;;;;;3.67;2.67;;;;;;;;5113735;27;45560;-78
2022/10/08 03:02:49;;;;;;;;;3.67;3.33;;;;;;;;5120944;27;45204;-77
2022/10/08 03:05:17;;;;;;;;;3.33;3.33;;;;;;;;5099975;27;45370;-74
2022/10/08 03:07:43;;;;;;;;;7.00;6.00;;;;;;;;5081803;27;45509;-75
2022/10/08 03:10:09;;;;;;;;;7.33;4.33;;;;;;;;5088787;27;45463;-77
2022/10/08 03:12:34;;;;;;;;;3.00;3.00;;;;;;;;5103195;27;45349;-76
2022/10/08 03:15:00;;;;;;;;;4.67;4.33;;;;;;;;5103443;27;46268;-79
2022/10/08 03:17:29;;;;;;;;;5.00;3.00;;;;;;;;5111066;27;45754;-79
2022/10/08 03:19:55;;;;;;;;;6.00;4.33;;;;;;;;5094629;27;45422;-79
2022/10/08 03:22:20;;;;;;;;;3.00;3.00;;;;;;;;5113149;27;44801;-78
2022/10/08 03:24:52;;;;;;;;;4.67;3.00;;;;;;;;5100792;27;45621;-80
2022/10/08 03:27:26;;;;;;;;;6.33;3.00;;;;;;;;5107783;27;45280;-81
2022/10/08 03:30:21;;;;;;;;;3.67;3.33;;;;;;;;5119729;27;44700;-80
2022/10/08 03:32:59;;;;;;;;;6.00;4.00;;;;;;;;5119198;27;44854;-82
2022/10/08 03:35:57;;;;;;;;;4.67;3.00;;;;;;;;5110112;27;44806;-82
2022/10/08 03:38:46;;;;;;;;;6.00;4.67;;;;;;;;5118073;27;45778;-81
2022/10/08 03:41:43;;;;;;;;;5.33;3.00;;;;;;;;5130933;27;45373;-82
2022/10/08 04:13:29;;;;;;;;;8.67;4.33;;;;;;;;4958269;28;45470;-78
2022/10/08 04:19:16;;;;;;;;;7.33;5.00;;;;;;;;4940768;28;44785;-80
2022/10/08 04:22:13;;;;;;;;;3.00;2.67;;;;;;;;5000234;28;44786;-78
2022/10/08 04:24:51;;;;;;;;;5.00;4.00;;;;;;;;5049530;28;45504;-79
2022/10/08 04:27:16;;;;;;;;;3.67;3.67;;;;;;;;5069765;27;45170;-79
2022/10/08 04:30:03;;;;;;;;;5.00;4.67;;;;;;;;5093739;28;44792;-80
2022/10/08 04:32:31;;;;;;;;;3.00;1.67;;;;;;;;5060717;28;45791;-78
2022/10/08 04:35:08;;;;;;;;;6.67;4.67;;;;;;;;5092196;27;44919;-79
2022/10/08 04:37:34;;;;;;;;;4.33;4.33;;;;;;;;5085516;27;46042;-79
2022/10/08 04:43:54;;;;;;;;;5.00;5.00;;;;;;;;5025397;28;44730;-85
2022/10/08 04:46:28;;;;;;;;;6.33;3.33;;;;;;;;5026635;28;44754;-83
2022/10/08 04:49:18;;;;;;;;;8.33;3.00;;;;;;;;5104857;27;45409;-81
2022/10/08 04:51:47;;;;;;;;;5.33;3.67;;;;;;;;5086553;27;45563;-82
2022/10/08 04:57:42;;;;;;;;;7.00;5.00;;;;;;;;5106162;28;44749;-82
2022/10/08 05:03:20;;;;;;;;;3.00;3.00;;;;;;;;5114175;27;45935;-81
2022/10/08 05:06:14;;;;;;;;;;;;;;;;;;;;;
2022/10/08 05:08:40;;;;;;;;;4.33;2.00;;;;;;;;5097834;27;73312;-81
2022/10/08 05:11:31;;;;;;;;;4.00;4.00;;;;;;;;5084676;28;46803;-78
2022/10/08 05:14:58;;;;;;;;;;;;;;;;;;;;;
2022/10/08 05:17:35;;;;;;;;;5.00;4.00;;;;;;;;5097665;27;44909;-80
2022/10/08 05:20:00;;;;;;;;;5.00;4.00;;;;;;;;5084561;27;46178;-80
2022/10/08 05:22:26;;;;;;;;;3.00;3.00;;;;;;;;5111787;27;45217;-81
2022/10/08 05:24:51;;;;;;;;;3.33;3.33;;;;;;;;5126110;27;45326;-80
2022/10/08 05:27:55;;;;;;;;;3.33;3.33;;;;;;;;5102052;27;44656;-82
2022/10/08 05:30:35;;;;;;;;;6.00;3.67;;;;;;;;5107524;27;44764;-80
2022/10/08 05:33:39;;;;;;;;;3.00;3.00;;;;;;;;5121705;27;45350;-79
2022/10/08 05:42:40;;;;;;;;;3.67;3.67;;;;;;;;5120582;27;44938;-79
2022/10/08 05:51:19;;;;;;;;;7.00;4.00;;;;;;;;5118945;27;44752;-81
2022/10/08 05:54:24;;;;;;;;;;;;;;;;;;;;;
2022/10/08 05:56:58;;;;;;;;;10.00;6.33;;;;;;;;5098289;27;75482;-81
2022/10/08 05:59:33;;;;;;;;;5.00;4.00;;;;;;;;5120905;27;44861;-78
2022/10/08 06:04:52;;;;;;;;;6.67;4.00;;;;;;;;5115320;27;45223;-79
2022/10/08 06:07:21;;;;;;;;;6.00;5.00;;;;;;;;5118851;27;45575;-76
2022/10/08 06:10:33;;;;;;;;;;;;;;;;;;;;;
2022/10/08 06:13:02;;;;;;;;;6.67;4.00;;;;;;;;5026769;28;67942;-79
2022/10/08 06:15:56;;;;;;;;;10.33;5.33;;;;;;;;5111684;27;44817;-80
2022/10/08 06:18:49;;;;;;;;;8.67;5.33;;;;;;;;5074598;27;47176;-78
2022/10/08 06:21:17;;;;;;;;;8.67;4.67;;;;;;;;5120170;27;45444;-80
2022/10/08 06:27:22;;;;;;;;;6.00;5.33;;;;;;;;5027956;28;44878;-83
2022/10/08 06:30:34;;;;;;;;;;;;;;;;;;;;;
2022/10/08 06:39:17;;;;;;;;;8.00;8.00;;;;;;;;5122785;27;44788;-80
2022/10/08 06:54:08;;;;;;;;;9.33;4.00;;;;;;;;5015318;28;45912;-81
2022/10/08 06:56:50;;;;;;;;;5.33;5.33;;;;;;;;5022271;28;45614;-85
2022/10/08 06:59:25;;;;;;;;;13.00;11.00;;;;;;;;5025295;28;45573;-82
2022/10/08 07:01:57;;;;;;;;;5.33;5.00;;;;;;;;4977892;28;46028;-81
2022/10/08 07:07:32;;;;;;;;;13.33;9.67;;;;;;;;5040342;28;45414;-81
2022/10/08 07:10:08;;;;;;;;;12.67;9.33;;;;;;;;5034255;28;45915;-84
2022/10/08 07:13:01;;;;;;;;;16.00;12.00;;;;;;;;5063262;27;46678;-81
2022/10/08 07:18:47;;;;;;;;;19.00;14.00;;;;;;;;5029976;28;45398;-83
2022/10/08 07:21:31;;;;;;;;;18.33;16.00;;;;;;;;5008639;28;45843;-86
2022/10/08 07:23:58;;;;;;;;;7.67;5.00;;;;;;;;5076809;27;45968;-78
2022/10/08 07:26:46;;;;;;;;;7.00;7.00;;;;;;;;5079143;27;45623;-74
2022/10/08 07:29:16;;;;;;;;;8.00;6.00;;;;;;;;5083382;27;45391;-76
2022/10/08 07:31:42;;;;;;;;;8.00;8.00;;;;;;;;5085893;27;45563;-76
2022/10/08 07:34:09;;;;;;;;;13.67;8.00;;;;;;;;5089842;27;45563;-75
2022/10/08 07:36:36;;;;;;;;;2.33;2.33;;;;;;;;5069449;27;45727;-75
2022/10/08 07:39:12;;;;;;;;;11.67;11.67;;;;;;;;5071231;27;45421;-74
2022/10/08 07:41:38;;;;;;;;;5.67;5.67;;;;;;;;5095261;27;45801;-75
2022/10/08 07:44:04;;;;;;;;;9.00;7.00;;;;;;;;5096756;27;45733;-76
2022/10/08 07:46:30;;;;;;;;;9.00;7.00;;;;;;;;5075785;27;47350;-75
2022/10/08 07:49:05;;;;;;;;;10.00;7.00;;;;;;;;5094745;27;45754;-79
2022/10/08 07:51:36;;;;;;;;;10.00;8.33;;;;;;;;5104646;27;45394;-79
2022/10/08 07:54:03;;;;;;;;;5.00;5.00;;;;;;;;5076642;27;46006;-79
2022/10/08 07:56:29;;;;;;;;;7.67;7.67;;;;;;;;5073726;27;46996;-79
2022/10/08 07:59:02;;;;;;;;;10.00;6.33;;;;;;;;5093797;27;45473;-80
2022/10/08 08:01:29;;;;;;;;;8.33;5.33;;;;;;;;5103852;27;45656;-80
2022/10/08 08:03:58;;;;;;;;;6.00;4.00;;;;;;;;5083199;27;46878;-79
2022/10/08 08:06:25;;;;;;;;;5.00;5.00;;;;;;;;5097281;27;45464;-78
2022/10/08 08:08:51;;;;;;;;;6.33;4.33;;;;;;;;5093034;27;45735;-79
2022/10/08 08:11:18;;;;;;;;;9.67;7.00;;;;;;;;5098496;27;45744;-80
2022/10/08 08:13:43;;;;;;;;;15.33;11.33;;;;;;;;5089744;27;45666;-78
2022/10/08 08:16:13;;;;;;;;;7.67;5.33;;;;;;;;5092657;27;45769;-80
2022/10/08 08:18:40;;;;;;;;;5.33;4.33;;;;;;;;5074745;27;45555;-78
2022/10/08 08:21:06;;;;;;;;;5.33;2.67;;;;;;;;5088602;27;45717;-80
2022/10/08 08:23:34;;;;;;;;;9.00;7.00;;;;;;;;5090788;27;45446;-81
2022/10/08 08:26:03;;;;;;;;;8.00;4.00;;;;;;;;5089096;27;45678;-79
2022/10/08 08:28:28;;;;;;;;;19.00;12.67;;;;;;;;5087302;27;45757;-78
2022/10/08 08:30:56;;;;;;;;;11.67;9.00;;;;;;;;5080591;27;45521;-78
2022/10/08 08:33:21;;;;;;;;;10.00;8.67;;;;;;;;5068607;27;45835;-79
2022/10/08 08:35:51;;;;;;;;;9.00;8.67;;;;;;;;5095847;27;45999;-81
2022/10/08 08:38:16;;;;;;;;;6.33;5.33;;;;;;;;5073240;27;45704;-80
2022/10/08 08:40:42;;;;;;;;;6.67;4.00;;;;;;;;5092051;27;45464;-79
2022/10/08 08:43:07;;;;;;;;;6.67;5.67;;;;;;;;5076314;27;45513;-78
2022/10/08 08:45:35;;;;;;;;;5.00;4.33;;;;;;;;5090071;27;45860;-78
2022/10/08 08:48:31;;;;;;;;;4.33;3.00;;;;;;;;5088377;27;45795;-85
2022/10/08 08:50:58;;;;;;;;;4.33;4.33;;;;;;;;5084911;27;45435;-77
2022/10/08 08:53:25;;;;;;;;;4.00;3.00;;;;;;;;5074696;27;45626;-79
2022/10/08 08:55:53;;;;;;;;;9.33;5.67;;;;;;;;5090016;27;47132;-78
2022/10/08 08:58:33;;;;;;;;;3.00;3.00;;;;;;;;5092537;27;45754;-82
2022/10/08 09:01:12;;;;;;;;;6.00;3.67;;;;;;;;5074307;27;45467;-82
2022/10/08 09:03:58;;;;;;;;;6.00;6.00;;;;;;;;5085359;27;46021;-79
2022/10/08 09:06:26;;;;;;;;;5.33;4.67;;;;;;;;5064257;27;47907;-81
2022/10/08 09:08:59;;;;;;;;;5.00;4.33;;;;;;;;5085667;27;45499;-76
2022/10/08 09:11:27;;;;;;;;;3.67;3.67;;;;;;;;5083797;27;45744;-80
2022/10/08 09:13:54;;;;;;;;;6.00;4.67;;;;;;;;5083664;27;45417;-77
2022/10/08 09:16:20;;;;;;;;;7.00;4.00;;;;;;;;5075378;27;46779;-82
2022/10/08 09:18:50;;;;;;;;;7.33;4.00;;;;;;;;5078372;27;45910;-83
2022/10/08 09:21:15;;;;;;;;;3.75;3.50;;;;;;;;5077814;27;45795;-80
2022/10/08 09:23:41;;;;;;;;;4.75;4.00;;;;;;;;5077585;27;46038;-79
2022/10/08 09:26:08;;;;;;;;;4.50;2.00;;;;;;;;5077133;27;46928;-81
2022/10/08 09:28:41;;;;;;;;;5.75;3.75;;;;;;;;5094378;27;46012;-83
2022/10/08 09:31:17;;;;;;;;;2.75;2.75;;;;;;;;5072680;27;46704;-83
2022/10/08 09:33:45;;;;;;;;;3.50;3.00;;;;;;;;5094000;27;45558;-82
2022/10/08 09:36:11;;;;;;;;;2.25;2.00;;;;;;;;5073897;27;45695;-79
2022/10/08 09:38:37;;;;;;;;;2.00;0.00;;;;;;;;5091207;27;45422;-81
2022/10/08 09:41:04;;;;;;;;;2.00;1.00;;;;;;;;5093807;27;45790;-83
2022/10/08 09:43:32;;;;;;;;;2.00;1.75;;;;;;;;5089855;27;45918;-82
2022/10/08 09:45:57;;;;;;;;;8.00;1.50;;;;;;;;5075278;27;46772;-80
2022/10/08 09:48:23;;;;;;;;;2.25;1.25;;;;;;;;5069590;27;45550;-83
2022/10/08 09:51:08;;;;;;;;;4.00;2.00;;;;;;;;5074214;27;45861;-79
2022/10/08 09:53:42;;;;;;;;;1.50;1.50;;;;;;;;5091113;27;46052;-86
2022/10/08 09:56:08;;;;;;;;;2.80;1.40;;;;;;;;5083644;27;46637;-84
2022/10/08 09:58:37;;;;;;;;;4.00;1.00;;;;;;;;5084969;27;45544;-83
2022/10/08 10:01:06;;;;;;;;;3.25;1.75;;;;;;;;5087325;27;45469;-81
2022/10/08 10:03:33;;;;;;;;;4.00;3.00;;;;;;;;5066240;27;45779;-81
2022/10/08 10:05:59;;;;;;;;;3.00;3.00;;;;;;;;5069710;27;45794;-83
2022/10/08 10:08:47;;;;;;;;;33.67;25.33;;;;;;;;5089724;27;45402;-82
2022/10/08 10:11:32;;;;;;;;;12.50;11.75;;;;;;;;5081370;27;45756;-81
2022/10/08 10:14:00;;;;;;;;;1.25;0.50;;;;;;;;5061034;27;45983;-79
2022/10/08 10:16:38;;;;;;;;;4.75;2.00;;;;;;;;5088378;27;45968;-83
2022/10/08 10:19:07;;;;;;;;;0.40;0.40;;;;;;;;5092113;27;45693;-78
2022/10/08 10:21:56;;;;;;;;;0.75;0.75;;;;;;;;5090348;27;45584;-84
2022/10/08 10:24:34;;;;;;;;;1.25;1.25;;;;;;;;5042015;27;46085;-84
2022/10/08 10:27:21;;;;;;;;;3.00;1.00;;;;;;;;5096311;27;46845;-81
2022/10/08 10:29:50;;;;;;;;;5.75;5.75;;;;;;;;5090470;27;45493;-81
2022/10/08 10:32:20;;;;;;;;;2.00;0.25;;;;;;;;5089905;27;45688;-83
2022/10/08 10:34:52;;;;;;;;;2.00;2.00;;;;;;;;5075876;27;47406;-82
2022/10/08 10:37:30;;;;;;;;;5.00;2.50;;;;;;;;5097038;27;46542;-79
2022/10/08 10:40:19;;;;;;;;;1.75;1.00;;;;;;;;5074872;27;45915;-80
2022/10/08 10:43:08;;;;;;;;;2.75;2.00;;;;;;;;5067194;27;45711;-84
2022/10/08 10:45:34;;;;;;;;;5.50;5.50;;;;;;;;5089724;27;45688;-81
2022/10/08 10:47:59;;;;;;;;;5.00;3.00;;;;;;;;5096245;27;46104;-77
2022/10/08 10:50:51;;;;;;;;;1.00;0.75;;;;;;;;5088774;27;45740;-77
2022/10/08 10:53:37;;;;;;;;;0.00;0.00;;;;;;;;5081201;27;45638;-78
2022/10/08 10:56:08;;;;;;;;;1.50;1.25;;;;;;;;5087438;27;45380;-82
2022/10/08 10:59:00;;;;;;;;;0.00;0.00;;;;;;;;5094911;27;46482;-80
2022/10/08 11:01:43;;;;;;;;;1.25;1.00;;;;;;;;5057516;27;46266;-81
2022/10/08 11:04:21;;;;;;;;;5.75;4.00;;;;;;;;5085493;27;45592;-82
2022/10/08 11:07:05;;;;;;;;;5.00;3.00;;;;;;;;5085260;27;45728;-81
2022/10/08 11:09:30;;;;;;;;;2.25;1.00;;;;;;;;5072065;27;46030;-80
2022/10/08 11:12:00;;;;;;;;;1.50;0.50;;;;;;;;5093998;27;46005;-82
2022/10/08 11:14:35;;;;;;;;;2.00;0.75;;;;;;;;5090804;27;45683;-85
2022/10/08 11:17:20;;;;;;;;;2.25;1.00;;;;;;;;5090796;27;45445;-80
2022/10/08 11:20:05;;;;;;;;;2.00;0.50;;;;;;;;5096967;27;45902;-80
2022/10/08 11:22:42;;;;;;;;;0.50;0.00;;;;;;;;5078791;27;45462;-81
2022/10/08 11:25:22;;;;;;;;;4.00;2.00;;;;;;;;5081445;27;45420;-76
2022/10/08 11:27:48;;;;;;;;;0.00;0.00;;;;;;;;5075358;27;45811;-82
2022/10/08 11:30:34;;;;;;;;;1.00;1.00;;;;;;;;5101932;27;46077;-83
2022/10/08 11:33:00;;;;;;;;;0.75;0.75;;;;;;;;5096031;27;45796;-78
2022/10/08 11:35:46;;;;;;;;;0.75;0.75;;;;;;;;5107388;27;46220;-78
2022/10/08 11:38:17;;;;;;;;;0.00;0.00;;;;;;;;5070036;27;45983;-78
2022/10/08 11:40:47;;;;;;;;;2.00;1.00;;;;;;;;5067350;27;45792;-78
2022/10/08 11:43:24;;;;;;;;;2.75;1.75;;;;;;;;5074649;27;45298;-78
2022/10/08 11:46:19;;;;;;;;;4.25;3.75;;;;;;;;5087346;27;45473;-77
2022/10/08 11:48:45;;;;;;;;;2.50;2.50;;;;;;;;5069260;27;45709;-80
2022/10/08 11:51:20;;;;;;;;;1.00;1.00;;;;;;;;5073615;27;46728;-78
2022/10/08 11:53:57;;;;;;;;;3.75;2.50;;;;;;;;5100564;27;45554;-78
2022/10/08 11:56:23;;;;;;;;;2.75;1.00;;;;;;;;5092081;27;44839;-79
2022/10/08 11:58:54;;;;;;;;;1.50;0.75;;;;;;;;5091774;27;45742;-79
2022/10/08 12:01:21;;;;;;;;;1.00;1.00;;;;;;;;5094684;27;46423;-79
2022/10/08 12:03:59;;;;;;;;;1.00;1.00;;;;;;;;5072065;27;45837;-80
2022/10/08 12:06:27;;;;;;;;;1.75;0.75;;;;;;;;5091958;27;45413;-77
2022/10/08 12:08:56;;;;;;;;;3.00;2.00;;;;;;;;5073164;27;46035;-77
2022/10/08 12:11:30;;;;;;;;;2.75;1.00;;;;;;;;5082207;27;45796;-78
2022/10/08 12:14:11;;;;;;;;;0.25;0.25;;;;;;;;5079510;27;45446;-83
2022/10/08 12:16:48;;;;;;;;;0.00;0.00;;;;;;;;5087495;27;45737;-78
2022/10/08 12:19:34;;;;;;;;;0.25;0.25;;;;;;;;5097677;27;45485;-78
2022/10/08 12:22:05;;;;;;;;;1.75;1.75;;;;;;;;5071351;27;47680;-78
2022/10/08 12:24:37;;;;;;;;;2.25;1.00;;;;;;;;5093174;27;45584;-78
2022/10/08 12:27:17;;;;;;;;;0.00;0.00;;;;;;;;5091882;27;45737;-79
2022/10/08 12:29:51;;;;;;;;;1.25;0.25;;;;;;;;5096512;27;45511;-76
2022/10/08 12:32:22;;;;;;;;;3.00;1.00;;;;;;;;5080289;27;47995;-79
2022/10/08 12:34:48;;;;;;;;;0.75;0.75;;;;;;;;5089523;27;45629;-78
2022/10/08 12:37:32;;;;;;;;;1.00;1.00;;;;;;;;5091505;27;45486;-79
2022/10/08 12:40:01;;;;;;;;;1.00;1.00;;;;;;;;5096626;27;45761;-79
2022/10/08 12:42:32;;;;;;;;;0.00;0.00;;;;;;;;5086091;27;45975;-78
2022/10/08 12:45:11;;;;;;;;;2.00;0.25;;;;;;;;5076392;27;45762;-79
2022/10/08 12:47:48;;;;;;;;;1.50;1.00;;;;;;;;5071702;27;45528;-78
2022/10/08 12:50:22;;;;;;;;;2.00;1.00;;;;;;;;5087326;27;47035;-77
2022/10/08 12:52:49;;;;;;;;;2.00;2.00;;;;;;;;5074396;27;47231;-76
2022/10/08 12:55:18;;;;;;;;;1.75;1.75;;;;;;;;5081760;27;45381;-78
2022/10/08 12:57:45;;;;;;;;;1.50;1.00;;;;;;;;5067948;27;45364;-80
2022/10/08 13:00:17;;;;;;;;;0.75;0.75;;;;;;;;5069024;27;45651;-79
2022/10/08 13:02:43;;;;;;;;;2.25;2.00;;;;;;;;5068350;27;46206;-77
2022/10/08 13:05:46;;;;;;;;;3.75;2.75;;;;;;;;5088227;27;45501;-77
2022/10/08 13:08:30;;;;;;;;;4.25;1.75;;;;;;;;5004143;28;45613;-79
2022/10/08 13:11:17;;;;;;;;;1.50;1.50;;;;;;;;5087054;27;45795;-79
2022/10/08 13:13:50;;;;;;;;;1.00;0.00;;;;;;;;5087665;27;46098;-77
2022/10/08 13:16:25;;;;;;;;;2.00;0.00;;;;;;;;5072239;27;45877;-79
2022/10/08 13:18:56;;;;;;;;;4.00;1.25;;;;;;;;5067428;27;45411;-77
2022/10/08 13:21:30;;;;;;;;;1.00;0.00;;;;;;;;5104403;27;45672;-80
2022/10/08 13:23:57;;;;;;;;;1.00;1.00;;;;;;;;5084380;27;47070;-79
2022/10/08 13:26:43;;;;;;;;;2.00;0.75;;;;;;;;5092473;27;45759;-79
2022/10/08 13:29:25;;;;;;;;;0.75;0.50;;;;;;;;5071908;27;45406;-79
2022/10/08 13:32:04;;;;;;;;;3.00;1.00;;;;;;;;5098051;27;45752;-79
2022/10/08 13:34:38;;;;;;;;;5.75;2.00;;;;;;;;5092782;27;45518;-77
2022/10/08 13:37:15;;;;;;;;;1.67;1.00;;;;;;;;5096890;27;45376;-78
2022/10/08 13:40:01;;;;;;;;;1.67;1.67;;;;;;;;5102066;27;45728;-77
2022/10/08 13:42:29;;;;;;;;;0.67;0.67;;;;;;;;5106067;27;45747;-79
2022/10/08 13:45:04;;;;;;;;;1.00;1.00;;;;;;;;5059345;27;46600;-83
2022/10/08 13:47:29;;;;;;;;;3.33;2.00;;;;;;;;5091345;27;45989;-84
2022/10/08 13:50:10;;;;;;;;;2.00;2.00;;;;;;;;5077243;27;45457;-80
2022/10/08 13:52:52;;;;;;;;;;;;;;;;;;;;;
2022/10/08 13:55:48;;;;;;;;;2.33;2.00;;;;;;;;5093397;27;75285;-81
2022/10/08 13:58:43;;;;;;;;;1.67;1.00;;;;;;;;5094864;27;45448;-80
2022/10/08 14:01:20;;;;;;;;;;;;;;;;;;;;;
2022/10/08 14:04:25;;;;;;;;;1.00;1.00;;;;;;;;5085595;27;74472;-85
2022/10/08 14:07:05;;;;;;;;;;;;;;;;;;;;;
2022/10/08 14:09:46;;;;;;;;;1.00;1.00;;;;;;;;5048008;28;71185;-82
2022/10/08 14:12:16;;;;;;;;;1.25;1.25;;;;;;;;5047408;27;46119;-81
2022/10/08 14:14:42;;;;;;;;;2.00;2.00;;;;;;;;5049328;27;45915;-80
2022/10/08 14:17:43;;;;;;;;;2.50;1.00;;;;;;;;5071023;27;45833;-81
2022/10/08 14:20:15;;;;;;;;;2.00;0.50;;;;;;;;5062635;27;46120;-83
2022/10/08 14:26:44;;;;;;;;;1.00;1.00;;;;;;;;4971040;28;46349;-83
2022/10/08 14:33:04;;;;;;;;;0.25;0.00;;;;;;;;4955110;28;45690;-81
2022/10/08 14:35:55;;;;;;;;;0.25;0.00;;;;;;;;4948341;28;45903;-82
2022/10/08 14:38:40;;;;;;;;;2.50;0.75;;;;;;;;4999725;28;45502;-78
2022/10/08 14:41:17;;;;;;;;;0.50;0.50;;;;;;;;5005414;28;45943;-79
2022/10/08 14:43:52;;;;;;;;;0.00;0.00;;;;;;;;5070807;27;45702;-81
2022/10/08 14:46:52;;;;;;;;;2.25;0.50;;;;;;;;5064387;27;45861;-82
2022/10/08 14:49:48;;;;;;;;;1.00;1.00;;;;;;;;4965375;28;45870;-80
2022/10/08 14:52:40;;;;;;;;;0.50;0.50;;;;;;;;4982098;28;46386;-81
2022/10/08 14:55:09;;;;;;;;;1.25;0.25;;;;;;;;5062830;27;46235;-81
2022/10/08 14:57:36;;;;;;;;;1.50;1.00;;;;;;;;5066877;27;45794;-81
2022/10/08 15:00:12;;;;;;;;;0.00;0.00;;;;;;;;5049755;27;45591;-82
2022/10/08 15:03:40;;;;;;;;;1.00;0.00;;;;;;;;5061940;27;47447;-82
2022/10/08 15:05:47;;;;;;;;;1.00;1.00;;;;;;;;5056478;27;45868;-80
2022/10/08 15:08:22;;;;;;;;;1.00;1.00;;;;;;;;5040434;28;45597;-79
2022/10/08 15:10:49;;;;;;;;;1.00;1.00;;;;;;;;5046513;28;45859;-82
2022/10/08 15:13:32;;;;;;;;;3.00;0.00;;;;;;;;5045917;27;48123;-82
2022/10/08 15:15:58;;;;;;;;;0.50;0.50;;;;;;;;5048041;27;45620;-79
2022/10/08 15:18:23;;;;;;;;;0.00;0.00;;;;;;;;5050557;28;45493;-82
2022/10/08 15:20:59;;;;;;;;;0.75;0.75;;;;;;;;5059674;28;45843;-80
2022/10/08 15:23:25;;;;;;;;;1.75;1.00;;;;;;;;5051889;28;45706;-78
2022/10/08 15:26:19;;;;;;;;;0.00;0.00;;;;;;;;5068173;27;45843;-80
2022/10/08 15:31:57;;;;;;;;;0.00;0.00;;;;;;;;5008519;28;45956;-82
2022/10/08 15:34:25;;;;;;;;;1.00;1.00;;;;;;;;5071834;27;45503;-81
2022/10/08 15:36:55;;;;;;;;;1.25;0.00;;;;;;;;5073083;28;45809;-80
2022/10/08 15:39:21;;;;;;;;;1.00;1.00;;;;;;;;5068666;27;45687;-81
2022/10/08 15:41:50;;;;;;;;;3.00;1.25;;;;;;;;5054490;28;45831;-79
2022/10/08 15:44:16;;;;;;;;;2.00;1.00;;;;;;;;5076712;27;45330;-80
2022/10/08 15:46:48;;;;;;;;;1.00;1.00;;;;;;;;5058501;27;45446;-81
2022/10/08 15:49:14;;;;;;;;;1.00;1.00;;;;;;;;5078735;27;45640;-81
2022/10/08 15:51:40;;;;;;;;;2.00;0.00;;;;;;;;5081306;27;45328;-81
2022/10/08 15:54:05;;;;;;;;;0.75;0.75;;;;;;;;5078863;27;45841;-80
2022/10/08 15:56:34;;;;;;;;;0.50;0.00;;;;;;;;5062595;28;45415;-80
2022/10/08 15:59:00;;;;;;;;;0.00;0.00;;;;;;;;5096863;27;45759;-82
2022/10/08 16:01:26;;;;;;;;;1.00;1.00;;;;;;;;5096831;27;45767;-80
2022/10/08 16:03:52;;;;;;;;;3.00;2.00;;;;;;;;5093807;27;45138;-80
2022/10/08 16:06:22;;;;;;;;;0.00;0.00;;;;;;;;5110775;27;45566;-81
2022/10/08 16:08:48;;;;;;;;;2.00;0.75;;;;;;;;5103290;22;45695;-69
2022/10/08 16:11:13;;;;;;;;;3.67;2.00;;;;;;;;5091609;27;45455;-70
2022/10/08 16:13:39;;;;;;;;;2.00;2.00;;;;;;;;5093640;27;45945;-71
2022/10/08 16:16:06;;;;;;;;;1.33;1.33;;;;;;;;5092994;27;45543;-71
2022/10/08 16:18:31;;;;;;;;;2.25;2.00;;;;;;;;5091449;27;45729;-70
2022/10/08 16:20:59;;;;;;;;;1.00;1.00;;;;;;;;5068455;27;45872;-70
2022/10/08 16:23:24;;;;;;;;;1.00;1.00;;;;;;;;5090878;27;45834;-70
2022/10/08 16:25:49;;;;;;;;;1.00;1.00;;;;;;;;5063404;27;45941;-71
2022/10/08 16:28:14;;;;;;;;;1.50;0.50;;;;;;;;5098170;27;45585;-69
2022/10/08 16:30:40;;;;;;;;;1.00;1.00;;;;;;;;5073350;27;46982;-71
2022/10/08 16:33:05;;;;;;;;;2.00;0.25;;;;;;;;5094085;27;45373;-71
2022/10/08 16:35:33;;;;;;;;;1.33;1.33;;;;;;;;5091888;27;45679;-70
2022/10/08 16:37:58;;;;;;;;;1.00;1.00;;;;;;;;5094174;27;45828;-70
2022/10/08 16:40:24;;;;;;;;;2.67;2.67;;;;;;;;5092785;27;45678;-70
2022/10/08 16:42:51;;;;;;;;;0.00;0.00;;;;;;;;5092070;27;46629;-70
2022/10/08 16:45:17;;;;;;;;;1.67;0.33;;;;;;;;5102917;27;45484;-69
2022/10/08 16:47:42;;;;;;;;;1.00;1.00;;;;;;;;5097288;27;46713;-69
2022/10/08 16:50:07;;;;;;;;;1.67;1.67;;;;;;;;5091378;27;45243;-69
2022/10/08 16:52:33;;;;;;;;;3.00;2.25;;;;;;;;5095397;27;47345;-70
2022/10/08 16:54:58;;;;;;;;;3.00;1.00;;;;;;;;5081327;27;45813;-67
2022/10/08 16:57:24;;;;;;;;;3.00;2.00;;;;;;;;5099217;27;45526;-69
2022/10/08 16:59:49;;;;;;;;;1.75;1.00;;;;;;;;5100242;27;45711;-68
2022/10/08 17:02:14;;;;;;;;;2.00;1.00;;;;;;;;5107666;27;45394;-69
2022/10/08 17:04:40;;;;;;;;;2.33;1.00;;;;;;;;5094587;27;46170;-71